Time;durP1;ratioP1;P1;durP2;ratioP2;P2;SDS_P1;SDS_P2;PMS_P1;PMS_P2;Temp;Humidity;BMP_temperature;BMP_pressure;BME280_temperature;BME280_humidity;BME280_pressure;Samples;Min_cycle;Max_cycle;Signal;HPM_P1;HPM_P2
2022/03/27 00:01:30;;;;;;;8.90;8.20;;;;;;;;;;4910048;29;20430;-80
2022/03/27 00:03:56;;;;;;;11.27;8.93;;;;;;;;;;4904915;29;20442;-80
2022/03/27 00:06:22;;;;;;;8.40;7.67;;;;;;;;;;4886325;29;20440;-80
2022/03/27 00:08:48;;;;;;;9.47;8.43;;;;;;;;;;4887674;29;20440;-80
2022/03/27 00:11:29;;;;;;;9.53;8.60;;;;;;;;;;4881490;29;20416;-80
2022/03/27 00:13:56;;;;;;;9.53;8.03;;;;;;;;;;4877699;29;20439;-81
2022/03/27 00:16:23;;;;;;;8.17;7.47;;;;;;;;;;4889852;29;20429;-81
2022/03/27 00:18:50;;;;;;;7.80;7.10;;;;;;;;;;4880549;29;20484;-81
2022/03/27 00:21:15;;;;;;;6.93;6.53;;;;;;;;;;4893773;29;20520;-79
2022/03/27 00:23:43;;;;;;;8.97;6.67;;;;;;;;;;4906683;29;20536;-80
2022/03/27 00:26:09;;;;;;;9.47;8.47;;;;;;;;;;4900722;29;20508;-81
2022/03/27 00:28:36;;;;;;;8.60;7.90;;;;;;;;;;4887602;29;20939;-80
2022/03/27 00:31:04;;;;;;;7.83;7.07;;;;;;;;;;4882677;29;20454;-80
2022/03/27 00:33:30;;;;;;;12.50;7.60;;;;;;;;;;4903321;29;20441;-80
2022/03/27 00:35:56;;;;;;;8.47;7.50;;;;;;;;;;4874795;29;20524;-81
2022/03/27 00:38:22;;;;;;;7.87;7.30;;;;;;;;;;4896075;29;20487;-80
2022/03/27 00:40:51;;;;;;;9.95;9.02;;;;;;;;;;4850297;29;1178648;-81
2022/03/27 00:43:18;;;;;;;8.70;8.10;;;;;;;;;;4887095;29;20252;-80
2022/03/27 00:45:45;;;;;;;8.00;7.30;;;;;;;;;;4877813;29;20849;-80
2022/03/27 00:48:11;;;;;;;9.47;8.57;;;;;;;;;;4900544;29;20529;-75
2022/03/27 00:50:37;;;;;;;8.97;8.27;;;;;;;;;;4910685;29;20787;-80
2022/03/27 00:53:04;;;;;;;10.90;8.20;;;;;;;;;;4898043;29;20421;-80
2022/03/27 00:55:30;;;;;;;9.10;8.20;;;;;;;;;;4883460;29;20444;-80
2022/03/27 00:57:56;;;;;;;9.30;8.60;;;;;;;;;;4877282;29;20480;-81
2022/03/27 01:00:41;;;;;;;7.93;7.23;;;;;;;;;;4898779;29;20503;-81
2022/03/27 01:03:09;;;;;;;8.47;7.50;;;;;;;;;;4904530;29;20449;-80
2022/03/27 01:05:37;;;;;;;8.67;7.43;;;;;;;;;;4890350;29;20531;-80
2022/03/27 01:08:08;;;;;;;8.20;7.40;;;;;;;;;;4886075;29;20444;-80
2022/03/27 01:10:34;;;;;;;8.93;8.13;;;;;;;;;;4888500;29;20441;-80
2022/03/27 01:13:02;;;;;;;8.87;8.07;;;;;;;;;;4899519;29;20473;-80
2022/03/27 01:15:31;;;;;;;10.30;8.53;;;;;;;;;;4885513;29;20495;-81
2022/03/27 01:17:57;;;;;;;12.57;8.53;;;;;;;;;;4907880;29;20539;-80
2022/03/27 01:20:27;;;;;;;11.90;10.70;;;;;;;;;;4881559;29;20472;-80
2022/03/27 01:22:53;;;;;;;8.80;8.03;;;;;;;;;;4877014;29;20457;-81
2022/03/27 01:25:19;;;;;;;9.37;8.60;;;;;;;;;;4893475;29;20433;-82
2022/03/27 01:27:45;;;;;;;9.03;7.93;;;;;;;;;;4885743;29;20464;-81
2022/03/27 01:30:12;;;;;;;11.30;9.27;;;;;;;;;;4891605;29;20910;-79
2022/03/27 01:32:38;;;;;;;8.13;7.53;;;;;;;;;;4879245;29;20508;-81
2022/03/27 01:35:04;;;;;;;10.13;9.30;;;;;;;;;;4879750;29;20528;-82
2022/03/27 01:37:31;;;;;;;10.43;9.53;;;;;;;;;;4886220;29;20965;-81
2022/03/27 01:39:59;;;;;;;10.80;9.80;;;;;;;;;;4893630;29;20544;-80
2022/03/27 01:42:25;;;;;;;10.90;9.80;;;;;;;;;;4900043;29;20440;-80
2022/03/27 01:44:51;;;;;;;10.13;9.27;;;;;;;;;;4892907;29;20951;-80
2022/03/27 01:47:17;;;;;;;11.03;10.03;;;;;;;;;;4893680;29;20990;-81
2022/03/27 01:49:43;;;;;;;10.87;9.00;;;;;;;;;;4892792;29;20448;-80
2022/03/27 01:52:09;;;;;;;12.57;11.30;;;;;;;;;;4894004;29;20802;-80
2022/03/27 01:54:35;;;;;;;12.30;9.33;;;;;;;;;;4883684;29;20457;-81
2022/03/27 01:57:02;;;;;;;11.73;10.50;;;;;;;;;;4900691;29;20439;-81
2022/03/27 01:59:28;;;;;;;11.33;10.30;;;;;;;;;;4898236;29;20542;-81
2022/03/27 02:01:54;;;;;;;11.40;10.20;;;;;;;;;;4888604;29;20520;-80
2022/03/27 02:04:20;;;;;;;10.20;9.50;;;;;;;;;;4884441;29;21057;-81
2022/03/27 02:06:46;;;;;;;13.40;12.30;;;;;;;;;;4911911;29;20428;-81
2022/03/27 02:09:12;;;;;;;12.33;10.53;;;;;;;;;;4896746;29;20444;-80
2022/03/27 02:11:39;;;;;;;12.63;11.20;;;;;;;;;;4894686;29;20419;-82
2022/03/27 02:14:05;;;;;;;10.50;9.50;;;;;;;;;;4885704;29;20505;-81
2022/03/27 02:16:31;;;;;;;14.10;11.30;;;;;;;;;;4881642;29;20426;-81
2022/03/27 02:18:57;;;;;;;13.70;10.50;;;;;;;;;;4903042;29;20476;-80
2022/03/27 02:21:23;;;;;;;16.57;10.80;;;;;;;;;;4895844;29;20500;-81
2022/03/27 02:23:50;;;;;;;11.57;10.37;;;;;;;;;;4898065;29;20440;-80
2022/03/27 02:26:15;;;;;;;12.60;11.30;;;;;;;;;;4892703;29;20401;-80
2022/03/27 02:28:42;;;;;;;11.53;10.50;;;;;;;;;;4876842;29;20453;-82
2022/03/27 02:31:08;;;;;;;11.23;10.23;;;;;;;;;;4899586;29;20449;-81
2022/03/27 02:33:35;;;;;;;13.83;10.67;;;;;;;;;;4884640;29;20453;-83
2022/03/27 02:36:02;;;;;;;12.50;11.20;;;;;;;;;;4878863;29;20520;-81
2022/03/27 02:38:28;;;;;;;12.77;10.67;;;;;;;;;;4883269;29;20485;-81
2022/03/27 02:41:15;;;;;;;12.10;10.90;;;;;;;;;;4890469;29;21055;-81
2022/03/27 02:43:42;;;;;;;17.57;12.13;;;;;;;;;;4874317;29;21109;-81
2022/03/27 02:46:08;;;;;;;17.43;12.73;;;;;;;;;;4884509;29;20501;-81
2022/03/27 02:48:34;;;;;;;12.40;11.20;;;;;;;;;;4878607;29;20480;-80
2022/03/27 02:51:00;;;;;;;14.30;10.93;;;;;;;;;;4885325;29;20516;-80
2022/03/27 02:53:26;;;;;;;18.83;11.73;;;;;;;;;;4877271;29;20476;-80
2022/03/27 02:55:59;;;;;;;17.20;12.20;;;;;;;;;;4896881;29;20945;-81
2022/03/27 02:58:25;;;;;;;12.47;11.27;;;;;;;;;;4874996;29;20501;-80
2022/03/27 03:00:51;;;;;;;14.23;12.63;;;;;;;;;;4875909;29;20987;-81
2022/03/27 03:03:17;;;;;;;14.83;13.17;;;;;;;;;;4884409;29;20480;-81
2022/03/27 03:05:43;;;;;;;18.60;13.13;;;;;;;;;;4894546;29;20446;-81
2022/03/27 03:08:12;;;;;;;18.60;15.37;;;;;;;;;;4896337;29;20413;-82
2022/03/27 03:10:40;;;;;;;15.97;14.27;;;;;;;;;;4887724;29;20543;-80
2022/03/27 03:13:08;;;;;;;15.37;13.50;;;;;;;;;;4898475;29;20440;-80
2022/03/27 03:15:34;;;;;;;19.47;14.33;;;;;;;;;;4884181;29;20456;-80
2022/03/27 03:18:00;;;;;;;15.63;13.90;;;;;;;;;;4895480;29;20516;-81
2022/03/27 03:20:27;;;;;;;16.60;14.53;;;;;;;;;;4897564;29;20783;-80
2022/03/27 03:22:53;;;;;;;16.90;14.30;;;;;;;;;;4892220;29;20445;-81
2022/03/27 03:25:19;;;;;;;17.60;14.67;;;;;;;;;;4894085;29;20449;-81
2022/03/27 03:27:45;;;;;;;15.40;13.80;;;;;;;;;;4891339;29;20552;-82
2022/03/27 03:30:12;;;;;;;16.90;15.30;;;;;;;;;;4891836;29;20445;-79
2022/03/27 03:32:38;;;;;;;17.23;15.50;;;;;;;;;;4897236;29;20451;-81
2022/03/27 03:35:04;;;;;;;17.60;15.87;;;;;;;;;;4900341;29;20447;-80
2022/03/27 03:37:31;;;;;;;18.57;16.60;;;;;;;;;;4904982;29;20484;-82
2022/03/27 03:39:57;;;;;;;17.30;15.60;;;;;;;;;;4895393;29;20867;-81
2022/03/27 03:42:23;;;;;;;23.37;16.30;;;;;;;;;;4884604;29;20452;-80
2022/03/27 03:44:49;;;;;;;21.03;16.00;;;;;;;;;;4906287;29;20451;-81
2022/03/27 03:47:15;;;;;;;19.90;17.17;;;;;;;;;;4891597;29;20428;-81
2022/03/27 03:49:41;;;;;;;18.37;16.23;;;;;;;;;;4896226;29;20441;-82
2022/03/27 03:52:07;;;;;;;18.53;16.63;;;;;;;;;;4878817;29;20451;-80
2022/03/27 03:54:34;;;;;;;19.50;16.23;;;;;;;;;;4907770;29;20869;-80
2022/03/27 03:57:00;;;;;;;20.50;17.13;;;;;;;;;;4874789;29;20547;-81
2022/03/27 03:59:26;;;;;;;20.67;18.50;;;;;;;;;;4907199;29;20503;-80
2022/03/27 04:01:51;;;;;;;22.93;18.50;;;;;;;;;;4894605;29;20424;-80
2022/03/27 04:04:17;;;;;;;23.90;19.37;;;;;;;;;;4902091;29;21024;-80
2022/03/27 04:06:44;;;;;;;34.00;22.00;;;;;;;;;;4891792;29;20435;-80
2022/03/27 04:09:10;;;;;;;34.53;23.57;;;;;;;;;;4897826;29;20460;-80
2022/03/27 04:11:36;;;;;;;39.33;24.23;;;;;;;;;;4892431;29;20455;-80
2022/03/27 04:14:02;;;;;;;34.47;24.20;;;;;;;;;;4896665;29;20511;-80
2022/03/27 04:16:28;;;;;;;39.97;24.00;;;;;;;;;;4896007;29;20437;-81
2022/03/27 04:18:54;;;;;;;34.20;25.57;;;;;;;;;;4904282;29;21259;-82
2022/03/27 04:21:20;;;;;;;42.47;28.87;;;;;;;;;;4910212;29;20825;-80
2022/03/27 04:23:46;;;;;;;49.70;28.67;;;;;;;;;;4891459;29;20876;-79
2022/03/27 04:26:13;;;;;;;50.47;28.20;;;;;;;;;;4895975;29;20473;-80
2022/03/27 04:28:39;;;;;;;45.63;28.17;;;;;;;;;;4907111;29;20723;-80
2022/03/27 04:31:06;;;;;;;57.53;29.10;;;;;;;;;;4890986;29;20428;-81
2022/03/27 04:33:32;;;;;;;54.53;30.30;;;;;;;;;;4904714;29;20507;-80
2022/03/27 04:35:58;;;;;;;51.00;28.67;;;;;;;;;;4878978;29;20465;-80
2022/03/27 04:38:24;;;;;;;51.57;32.50;;;;;;;;;;4893042;29;20556;-81
2022/03/27 04:40:51;;;;;;;47.93;29.30;;;;;;;;;;4907835;29;20460;-80
2022/03/27 04:43:17;;;;;;;51.73;30.00;;;;;;;;;;4890379;29;20443;-80
2022/03/27 04:45:43;;;;;;;61.37;31.60;;;;;;;;;;4883739;29;20524;-80
2022/03/27 04:48:09;;;;;;;61.63;32.60;;;;;;;;;;4878134;29;20437;-80
2022/03/27 04:50:35;;;;;;;46.07;28.53;;;;;;;;;;4878391;29;20435;-80
2022/03/27 04:53:01;;;;;;;53.10;30.07;;;;;;;;;;4898165;29;20435;-79
2022/03/27 04:55:30;;;;;;;51.47;30.30;;;;;;;;;;4900781;29;20459;-80
2022/03/27 04:57:56;;;;;;;51.00;31.30;;;;;;;;;;4878166;29;20469;-80
2022/03/27 05:00:22;;;;;;;46.07;29.40;;;;;;;;;;4878175;29;20436;-80
2022/03/27 05:02:51;;;;;;;44.23;27.03;;;;;;;;;;4884250;29;20470;-81
2022/03/27 05:05:17;;;;;;;50.77;30.83;;;;;;;;;;4896744;29;20490;-80
2022/03/27 05:07:44;;;;;;;48.40;29.43;;;;;;;;;;4887547;29;20875;-80
2022/03/27 05:10:11;;;;;;;48.67;30.07;;;;;;;;;;4890490;29;20502;-80
2022/03/27 05:12:37;;;;;;;63.87;33.40;;;;;;;;;;4878160;29;20464;-80
2022/03/27 05:15:04;;;;;;;56.17;29.60;;;;;;;;;;4880647;29;20453;-80
2022/03/27 05:17:30;;;;;;;64.00;32.40;;;;;;;;;;4903418;29;20480;-80
2022/03/27 05:19:56;;;;;;;68.90;32.57;;;;;;;;;;4894014;29;21003;-80
2022/03/27 05:22:22;;;;;;;64.83;32.20;;;;;;;;;;4893367;29;20523;-80
2022/03/27 05:24:48;;;;;;;55.90;31.87;;;;;;;;;;4883736;29;20597;-80
2022/03/27 05:27:18;;;;;;;57.60;31.13;;;;;;;;;;4895138;29;20866;-80
2022/03/27 05:29:44;;;;;;;64.30;32.13;;;;;;;;;;4909130;29;20468;-80
2022/03/27 05:32:10;;;;;;;74.17;33.80;;;;;;;;;;4877373;29;20475;-80
2022/03/27 05:34:36;;;;;;;77.37;33.73;;;;;;;;;;4892562;29;20976;-80
2022/03/27 05:37:03;;;;;;;74.40;35.20;;;;;;;;;;4895221;29;20999;-80
2022/03/27 05:39:29;;;;;;;77.87;36.53;;;;;;;;;;4891577;29;20467;-80
2022/03/27 05:41:55;;;;;;;68.60;32.40;;;;;;;;;;4883567;29;20457;-81
2022/03/27 05:44:21;;;;;;;68.10;35.60;;;;;;;;;;4894472;29;20456;-80
2022/03/27 05:46:50;;;;;;;67.00;35.30;;;;;;;;;;4893464;29;20409;-80
2022/03/27 05:49:16;;;;;;;51.57;31.57;;;;;;;;;;4904332;29;20451;-80
2022/03/27 05:51:42;;;;;;;58.80;33.90;;;;;;;;;;4893954;29;20912;-80
2022/03/27 05:54:08;;;;;;;51.63;32.13;;;;;;;;;;4885107;29;20496;-80
2022/03/27 05:56:34;;;;;;;57.47;31.80;;;;;;;;;;4873944;29;20414;-80
2022/03/27 05:59:00;;;;;;;48.80;29.67;;;;;;;;;;4892031;29;20562;-80
2022/03/27 06:01:26;;;;;;;59.57;35.00;;;;;;;;;;4911918;29;20470;-80
2022/03/27 06:03:52;;;;;;;58.27;34.57;;;;;;;;;;4883464;29;20955;-80
2022/03/27 06:06:18;;;;;;;49.73;32.93;;;;;;;;;;4878058;29;20466;-80
2022/03/27 06:08:44;;;;;;;49.77;34.10;;;;;;;;;;4883725;29;20543;-80
2022/03/27 06:11:10;;;;;;;43.33;31.07;;;;;;;;;;4909067;29;20435;-80
2022/03/27 06:13:36;;;;;;;53.00;33.30;;;;;;;;;;4880083;29;20452;-80
2022/03/27 06:16:02;;;;;;;57.53;34.70;;;;;;;;;;4911834;29;20408;-81
2022/03/27 06:18:28;;;;;;;53.17;35.47;;;;;;;;;;4909470;29;20550;-80
2022/03/27 06:20:54;;;;;;;54.27;36.10;;;;;;;;;;4911785;29;20407;-80
2022/03/27 06:23:20;;;;;;;46.57;33.73;;;;;;;;;;4879440;29;20977;-80
2022/03/27 06:25:46;;;;;;;54.20;34.43;;;;;;;;;;4880626;29;20489;-80
2022/03/27 06:28:12;;;;;;;49.50;34.47;;;;;;;;;;4901983;29;20504;-79
2022/03/27 06:30:38;;;;;;;58.40;34.20;;;;;;;;;;4878749;29;20434;-80
2022/03/27 06:33:05;;;;;;;50.93;34.17;;;;;;;;;;4893073;29;20471;-80
2022/03/27 06:35:31;;;;;;;57.70;37.90;;;;;;;;;;4901729;29;20452;-80
2022/03/27 06:37:57;;;;;;;60.53;37.50;;;;;;;;;;4898028;29;20492;-79
2022/03/27 06:40:24;;;;;;;53.57;36.47;;;;;;;;;;4217940;29;10000718;-80
2022/03/27 06:42:50;;;;;;;50.63;31.70;;;;;;;;;;4881399;29;20500;-80
2022/03/27 06:45:16;;;;;;;56.03;33.50;;;;;;;;;;4903979;29;20878;-80
2022/03/27 06:47:44;;;;;;;49.60;33.27;;;;;;;;;;4891466;29;20450;-79
2022/03/27 06:50:13;;;;;;;44.80;32.20;;;;;;;;;;4899648;29;20459;-80
2022/03/27 06:52:40;;;;;;;50.67;30.23;;;;;;;;;;4902348;29;20464;-81
2022/03/27 06:55:08;;;;;;;48.43;33.50;;;;;;;;;;4898413;29;20533;-80
2022/03/27 06:57:34;;;;;;;49.00;30.77;;;;;;;;;;4877976;29;20487;-79
2022/03/27 07:03:05;;;;;;;49.00;33.13;;;;;;;;;;4897380;29;20831;-80
2022/03/27 07:05:32;;;;;;;50.63;33.33;;;;;;;;;;4885891;29;20456;-81
2022/03/27 07:07:58;;;;;;;46.13;34.43;;;;;;;;;;4902320;29;20431;-80
2022/03/27 07:10:24;;;;;;;49.30;31.30;;;;;;;;;;4877190;29;20455;-80
2022/03/27 07:12:56;;;;;;;49.60;29.60;;;;;;;;;;4882377;29;20433;-80
2022/03/27 07:15:24;;;;;;;48.90;33.37;;;;;;;;;;4887617;29;20439;-80
2022/03/27 07:17:53;;;;;;;48.13;32.23;;;;;;;;;;4898668;29;20684;-80
2022/03/27 07:20:27;;;;;;;49.33;32.57;;;;;;;;;;4887468;29;20535;-81
2022/03/27 07:22:54;;;;;;;40.67;30.37;;;;;;;;;;4888149;29;20487;-79
2022/03/27 07:25:23;;;;;;;41.93;30.77;;;;;;;;;;4900339;29;20674;-79
2022/03/27 07:27:50;;;;;;;45.07;31.57;;;;;;;;;;4878405;29;20434;-79
2022/03/27 07:30:19;;;;;;;47.43;32.57;;;;;;;;;;4883260;29;20474;-79
2022/03/27 07:32:45;;;;;;;42.27;30.60;;;;;;;;;;4885389;29;20454;-79
2022/03/27 07:35:11;;;;;;;40.00;31.10;;;;;;;;;;4898036;29;20435;-79
2022/03/27 07:37:38;;;;;;;50.50;32.90;;;;;;;;;;4893127;29;20481;-79
2022/03/27 07:40:08;;;;;;;40.60;30.13;;;;;;;;;;4894513;29;21259;-79
2022/03/27 07:42:34;;;;;;;45.70;32.80;;;;;;;;;;4903800;29;20938;-79
2022/03/27 07:45:01;;;;;;;46.63;30.10;;;;;;;;;;4892188;29;20439;-79
2022/03/27 07:47:27;;;;;;;43.60;30.40;;;;;;;;;;4896774;29;20452;-79
2022/03/27 07:49:53;;;;;;;50.67;34.00;;;;;;;;;;4879316;29;20445;-79
2022/03/27 07:52:20;;;;;;;44.80;32.03;;;;;;;;;;4895242;29;20445;-79
2022/03/27 07:54:46;;;;;;;47.93;32.80;;;;;;;;;;4904145;29;20578;-80
2022/03/27 07:57:13;;;;;;;48.77;31.43;;;;;;;;;;4888007;29;20523;-80
2022/03/27 07:59:38;;;;;;;43.57;30.60;;;;;;;;;;4885721;29;20588;-79
2022/03/27 08:02:04;;;;;;;48.50;31.10;;;;;;;;;;4901304;29;20479;-79
2022/03/27 08:04:30;;;;;;;40.70;30.77;;;;;;;;;;4887552;29;20413;-80
2022/03/27 08:06:56;;;;;;;42.60;31.13;;;;;;;;;;4884111;29;20544;-81
2022/03/27 08:09:22;;;;;;;43.57;33.00;;;;;;;;;;4874543;29;20441;-83
2022/03/27 08:11:49;;;;;;;46.43;31.50;;;;;;;;;;4887681;29;20511;-82
2022/03/27 08:14:15;;;;;;;39.50;32.00;;;;;;;;;;4884894;29;20583;-82
2022/03/27 08:16:41;;;;;;;35.77;29.00;;;;;;;;;;4871848;29;20448;-80
2022/03/27 08:19:23;;;;;;;39.70;28.70;;;;;;;;;;4893618;29;20494;-83
2022/03/27 08:21:49;;;;;;;41.07;30.80;;;;;;;;;;4889720;29;20451;-81
2022/03/27 08:24:15;;;;;;;41.70;29.37;;;;;;;;;;4896546;29;20450;-83
2022/03/27 08:26:56;;;;;;;41.57;32.07;;;;;;;;;;4893598;29;21027;-82
2022/03/27 08:29:26;;;;;;;39.93;29.50;;;;;;;;;;4543375;29;10001289;-83
2022/03/27 08:31:52;;;;;;;38.50;30.10;;;;;;;;;;4882894;29;20500;-83
2022/03/27 08:34:19;;;;;;;40.70;27.30;;;;;;;;;;4893808;29;20417;-82
2022/03/27 08:36:46;;;;;;;36.43;27.70;;;;;;;;;;4890596;29;20441;-83
2022/03/27 08:39:12;;;;;;;37.77;27.57;;;;;;;;;;4882754;29;21091;-81
2022/03/27 08:41:45;;;;;;;38.63;28.97;;;;;;;;;;4875214;29;20509;-82
2022/03/27 08:44:15;;;;;;;38.33;27.47;;;;;;;;;;4886044;29;20448;-82
2022/03/27 08:46:42;;;;;;;38.97;29.97;;;;;;;;;;4893273;29;20503;-82
2022/03/27 08:49:29;;;;;;;39.70;29.83;;;;;;;;;;4891246;29;20447;-79
2022/03/27 08:51:58;;;;;;;38.93;28.60;;;;;;;;;;4883325;29;20425;-81
2022/03/27 08:54:29;;;;;;;37.67;27.97;;;;;;;;;;4891649;29;20425;-82
2022/03/27 08:57:14;;;;;;;33.70;27.23;;;;;;;;;;4875107;29;21220;-81
2022/03/27 08:59:41;;;;;;;34.10;27.20;;;;;;;;;;4870090;29;20444;-83
2022/03/27 09:02:07;;;;;;;37.00;26.83;;;;;;;;;;4879675;29;20544;-81
2022/03/27 09:04:36;;;;;;;34.07;27.00;;;;;;;;;;4901416;29;20424;-83
2022/03/27 09:07:05;;;;;;;37.10;27.90;;;;;;;;;;4888542;29;20453;-82
2022/03/27 09:09:35;;;;;;;34.57;26.40;;;;;;;;;;4898583;29;20451;-82
2022/03/27 09:12:03;;;;;;;36.20;27.93;;;;;;;;;;4877872;29;20476;-82
2022/03/27 09:14:31;;;;;;;34.30;27.53;;;;;;;;;;4895013;29;20425;-83
2022/03/27 09:17:07;;;;;;;36.27;27.57;;;;;;;;;;4879504;29;20449;-82
2022/03/27 09:19:39;;;;;;;35.70;26.53;;;;;;;;;;4882625;29;20523;-84
2022/03/27 09:22:19;;;;;;;36.97;28.60;;;;;;;;;;4900285;29;20441;-83
2022/03/27 09:25:02;;;;;;;34.90;26.83;;;;;;;;;;4915349;29;20530;-81
2022/03/27 09:27:32;;;;;;;33.20;27.83;;;;;;;;;;4913093;29;20428;-84
2022/03/27 09:30:00;;;;;;;36.50;27.77;;;;;;;;;;4887276;29;20445;-85
2022/03/27 09:32:36;;;;;;;37.37;26.83;;;;;;;;;;4899747;29;20487;-82
2022/03/27 09:35:10;;;;;;;37.63;26.03;;;;;;;;;;4877094;29;21308;-84
2022/03/27 09:37:38;;;;;;;32.23;25.90;;;;;;;;;;4905388;29;20528;-85
2022/03/27 09:40:08;;;;;;;36.10;25.40;;;;;;;;;;4899138;29;20841;-85
2022/03/27 09:42:37;;;;;;;40.23;26.37;;;;;;;;;;4882635;29;20440;-85
2022/03/27 09:45:15;;;;;;;37.90;26.40;;;;;;;;;;4884082;29;20441;-83
2022/03/27 09:47:42;;;;;;;26.73;20.03;;;;;;;;;;4884148;29;20507;-85
2022/03/27 09:50:27;;;;;;;45.73;28.37;;;;;;;;;;4913370;29;20488;-85
2022/03/27 09:52:54;;;;;;;30.80;22.97;;;;;;;;;;4913376;29;20436;-84
2022/03/27 09:55:20;;;;;;;30.03;21.33;;;;;;;;;;4886757;29;20840;-84
2022/03/27 09:57:57;;;;;;;26.00;21.10;;;;;;;;;;4920501;29;20492;-85
2022/03/27 10:00:29;;;;;;;30.60;21.33;;;;;;;;;;4905191;29;20435;-85
2022/03/27 10:02:55;;;;;;;28.90;21.20;;;;;;;;;;4889096;29;20440;-86
2022/03/27 10:05:22;;;;;;;22.57;17.57;;;;;;;;;;4892871;29;20444;-87
2022/03/27 10:07:53;;;;;;;29.80;20.23;;;;;;;;;;4923816;29;20428;-86
2022/03/27 10:10:24;;;;;;;30.07;21.80;;;;;;;;;;4908936;29;20428;-82
2022/03/27 10:12:51;;;;;;;29.70;22.43;;;;;;;;;;4910452;29;20433;-84
2022/03/27 10:15:18;;;;;;;28.13;22.13;;;;;;;;;;4900283;29;20436;-85
2022/03/27 10:17:53;;;;;;;30.33;24.10;;;;;;;;;;4902268;29;20473;-84
2022/03/27 10:20:21;;;;;;;30.77;24.23;;;;;;;;;;4882290;29;20436;-85
2022/03/27 10:22:49;;;;;;;31.30;24.60;;;;;;;;;;4907565;29;20405;-86
2022/03/27 10:25:17;;;;;;;30.23;23.53;;;;;;;;;;4558023;29;10000685;-88
2022/03/27 10:27:44;;;;;;;29.87;24.50;;;;;;;;;;4918952;29;20853;-87
2022/03/27 10:30:11;;;;;;;34.17;24.77;;;;;;;;;;4920679;29;20446;-82
2022/03/27 10:32:42;;;;;;;30.03;25.37;;;;;;;;;;4905103;29;20476;-84
2022/03/27 10:35:13;;;;;;;28.83;23.60;;;;;;;;;;4920293;29;20683;-82
2022/03/27 10:37:52;;;;;;;30.27;25.77;;;;;;;;;;4897796;29;20488;-84
2022/03/27 10:40:27;;;;;;;34.37;26.57;;;;;;;;;;4902252;29;20507;-83
2022/03/27 10:43:11;;;;;;;29.30;23.27;;;;;;;;;;4879303;29;20483;-84
2022/03/27 10:45:38;;;;;;;33.37;24.40;;;;;;;;;;4908243;29;20467;-85
2022/03/27 10:48:11;;;;;;;32.87;25.97;;;;;;;;;;4900935;29;20445;-85
2022/03/27 10:50:48;;;;;;;30.27;24.40;;;;;;;;;;4906372;29;20466;-84
2022/03/27 10:53:14;;;;;;;29.53;26.33;;;;;;;;;;4903751;29;20968;-86
2022/03/27 10:55:48;;;;;;;33.00;26.60;;;;;;;;;;4966496;23;20619;-83
2022/03/27 10:58:30;;;;;;;28.67;25.77;;;;;;;;;;4889632;29;20479;-78
2022/03/27 11:00:58;;;;;;;30.90;25.13;;;;;;;;;;4884622;29;20463;-81
2022/03/27 11:04:04;;;;;;;29.80;26.70;;;;;;;;;;4896605;29;20416;-86
2022/03/27 11:06:31;;;;;;;33.10;26.77;;;;;;;;;;4873989;29;20858;-80
2022/03/27 11:08:58;;;;;;;30.37;25.17;;;;;;;;;;4895072;29;20520;-86
2022/03/27 11:11:36;;;;;;;27.07;24.57;;;;;;;;;;4868959;29;20433;-88
2022/03/27 11:14:09;;;;;;;29.17;26.00;;;;;;;;;;4876004;29;20536;-84
2022/03/27 11:16:55;;;;;;;28.03;25.10;;;;;;;;;;4870698;29;20457;-87
2022/03/27 11:19:41;;;;;;;26.40;23.80;;;;;;;;;;4876147;29;20915;-81
2022/03/27 11:22:10;;;;;;;27.23;24.50;;;;;;;;;;4862544;29;21013;-85
2022/03/27 11:24:38;;;;;;;27.97;25.17;;;;;;;;;;4903703;23;20514;-89
2022/03/27 11:27:04;;;;;;;30.97;24.73;;;;;;;;;;4921394;29;20463;-89
2022/03/27 11:29:30;;;;;;;24.67;22.27;;;;;;;;;;4921623;29;20436;-90
2022/03/27 11:32:07;;;;;;;21.87;19.83;;;;;;;;;;4910299;29;20432;-90
2022/03/27 11:34:34;;;;;;;23.43;21.23;;;;;;;;;;4906923;29;20448;-90
2022/03/27 11:37:14;;;;;;;24.73;22.33;;;;;;;;;;4925807;29;20798;-90
2022/03/27 11:39:46;;;;;;;23.00;20.90;;;;;;;;;;4923138;29;20434;-91
2022/03/27 11:42:32;;;;;;;23.60;21.30;;;;;;;;;;4928209;29;20428;-92
2022/03/27 11:45:09;;;;;;;22.13;20.17;;;;;;;;;;4923119;29;20464;-90
2022/03/27 11:47:56;;;;;;;20.73;18.83;;;;;;;;;;4922541;29;20456;-91
2022/03/27 11:50:23;;;;;;;19.97;18.37;;;;;;;;;;4900091;29;20452;-91
2022/03/27 11:52:49;;;;;;;21.60;19.73;;;;;;;;;;4897786;29;20441;-91
2022/03/27 11:55:18;;;;;;;20.83;19.07;;;;;;;;;;4896918;29;20552;-88
2022/03/27 11:57:45;;;;;;;19.07;17.37;;;;;;;;;;4897984;29;20472;-91
2022/03/27 12:00:11;;;;;;;21.00;19.30;;;;;;;;;;4897829;29;20517;-88
2022/03/27 12:02:42;;;;;;;20.40;18.67;;;;;;;;;;4900974;29;20435;-91
2022/03/27 12:05:08;;;;;;;20.10;18.17;;;;;;;;;;4910579;29;20642;-87
2022/03/27 12:07:52;;;;;;;21.20;19.40;;;;;;;;;;4917605;29;20431;-91
2022/03/27 12:10:18;;;;;;;22.47;20.43;;;;;;;;;;4899911;29;20428;-90
2022/03/27 12:12:56;;;;;;;21.00;18.70;;;;;;;;;;4915875;29;20424;-91
2022/03/27 12:15:22;;;;;;;22.43;20.33;;;;;;;;;;4908788;29;20429;-90
2022/03/27 12:17:51;;;;;;;22.63;20.50;;;;;;;;;;4899061;29;20480;-89
2022/03/27 12:20:17;;;;;;;20.80;18.90;;;;;;;;;;4911771;29;20420;-90
2022/03/27 12:22:45;;;;;;;22.70;20.60;;;;;;;;;;4904234;29;20835;-88
2022/03/27 12:25:22;;;;;;;21.77;19.77;;;;;;;;;;4902425;29;20464;-92
2022/03/27 12:30:49;;;;;;;21.53;19.63;;;;;;;;;;4901432;29;20495;-91
2022/03/27 12:33:19;;;;;;;19.33;17.63;;;;;;;;;;4914914;29;20860;-91
2022/03/27 12:35:47;;;;;;;20.60;18.53;;;;;;;;;;4916426;29;20446;-91
2022/03/27 12:38:13;;;;;;;20.63;18.77;;;;;;;;;;4915761;29;20468;-91
2022/03/27 12:40:46;;;;;;;21.80;19.80;;;;;;;;;;4918436;29;21117;-91
2022/03/27 12:43:13;;;;;;;20.97;18.87;;;;;;;;;;4912082;29;20544;-89
2022/03/27 12:45:40;;;;;;;21.57;19.80;;;;;;;;;;4912685;29;21020;-88
2022/03/27 12:48:09;;;;;;;21.23;19.20;;;;;;;;;;4908360;29;20452;-88
2022/03/27 12:50:36;;;;;;;17.53;16.07;;;;;;;;;;4903488;29;20590;-91
2022/03/27 12:53:07;;;;;;;17.20;15.80;;;;;;;;;;4903778;29;20491;-89
2022/03/27 12:55:45;;;;;;;18.03;16.53;;;;;;;;;;4918008;29;20511;-89
2022/03/27 12:58:12;;;;;;;18.03;16.63;;;;;;;;;;4917857;29;20544;-89
2022/03/27 13:00:40;;;;;;;19.47;17.93;;;;;;;;;;4916817;29;21016;-89
2022/03/27 13:03:09;;;;;;;19.60;17.80;;;;;;;;;;4896574;29;20549;-91
2022/03/27 13:05:38;;;;;;;16.13;14.93;;;;;;;;;;4914782;29;20433;-89
2022/03/27 13:08:04;;;;;;;16.87;15.57;;;;;;;;;;4902726;29;20440;-93
2022/03/27 13:10:30;;;;;;;18.00;16.50;;;;;;;;;;4919700;29;20445;-89
2022/03/27 13:12:59;;;;;;;17.70;16.40;;;;;;;;;;4913642;29;20421;-89
2022/03/27 13:15:55;;;;;;;17.60;16.10;;;;;;;;;;4913305;29;20457;-86
2022/03/27 13:18:31;;;;;;;17.30;15.90;;;;;;;;;;4897072;29;20495;-89
2022/03/27 13:20:57;;;;;;;17.60;16.20;;;;;;;;;;4917681;29;20451;-90
2022/03/27 13:23:26;;;;;;;17.93;16.43;;;;;;;;;;4905364;29;20440;-88
2022/03/27 13:25:53;;;;;;;18.03;16.53;;;;;;;;;;4913540;29;20484;-88
2022/03/27 13:28:19;;;;;;;15.60;14.40;;;;;;;;;;4885631;29;20440;-90
2022/03/27 13:30:50;;;;;;;16.13;14.73;;;;;;;;;;4922751;29;20447;-90
2022/03/27 13:33:16;;;;;;;17.93;16.43;;;;;;;;;;4916668;29;20993;-88
2022/03/27 13:35:46;;;;;;;17.20;15.70;;;;;;;;;;4905171;29;21602;-88
2022/03/27 13:38:15;;;;;;;17.47;16.00;;;;;;;;;;4896543;29;20493;-89
2022/03/27 13:43:27;;;;;;;15.13;13.80;;;;;;;;;;4903962;29;20467;-90
2022/03/27 13:45:53;;;;;;;17.60;16.20;;;;;;;;;;4910430;29;20433;-88
2022/03/27 13:48:19;;;;;;;15.50;14.30;;;;;;;;;;4906877;29;20488;-90
2022/03/27 13:50:45;;;;;;;17.50;16.00;;;;;;;;;;4913127;29;20972;-90
2022/03/27 13:53:11;;;;;;;15.63;14.33;;;;;;;;;;4911643;29;20475;-88
2022/03/27 13:55:38;;;;;;;13.87;12.77;;;;;;;;;;4914003;29;20940;-89
2022/03/27 13:58:04;;;;;;;17.87;16.47;;;;;;;;;;4914957;29;20828;-89
2022/03/27 14:00:32;;;;;;;14.93;13.73;;;;;;;;;;4558842;29;10000294;-89
2022/03/27 14:03:01;;;;;;;12.67;11.57;;;;;;;;;;4906894;29;20290;-90
2022/03/27 14:05:27;;;;;;;13.17;12.27;;;;;;;;;;4895319;29;20452;-90
2022/03/27 14:07:54;;;;;;;12.43;11.23;;;;;;;;;;4878866;29;21081;-89
2022/03/27 14:10:20;;;;;;;12.80;11.73;;;;;;;;;;4905366;29;20874;-92
2022/03/27 14:12:52;;;;;;;14.57;13.33;;;;;;;;;;4914730;29;20449;-90
2022/03/27 14:15:18;;;;;;;15.67;14.17;;;;;;;;;;4895732;29;20528;-92
2022/03/27 14:17:49;;;;;;;12.97;12.03;;;;;;;;;;4893324;29;20495;-92
2022/03/27 14:20:21;;;;;;;12.60;11.50;;;;;;;;;;4904279;29;20455;-92
2022/03/27 14:23:00;;;;;;;14.33;13.27;;;;;;;;;;4901494;29;20500;-92
2022/03/27 14:25:30;;;;;;;11.63;10.63;;;;;;;;;;4916334;29;20472;-91
2022/03/27 14:27:59;;;;;;;14.10;12.67;;;;;;;;;;4901993;29;20733;-90
2022/03/27 14:30:28;;;;;;;10.90;10.20;;;;;;;;;;4907524;29;20431;-92
2022/03/27 14:32:57;;;;;;;11.33;10.30;;;;;;;;;;4921685;29;20417;-91
2022/03/27 14:35:24;;;;;;;12.33;11.57;;;;;;;;;;4918114;29;20460;-91